sensor_id;sensor_type;location;lat;lon;timestamp;P1;durP1;ratioP1;P2;durP2;ratioP2
77423;SDS011;66494;47.172;14.678;2023-07-13T00:00:01;1.15;;;0.82;;
77423;SDS011;66494;47.172;14.678;2023-07-13T00:01:04;2.13;;;1.05;;
77423;SDS011;66494;47.172;14.678;2023-07-13T00:02:04;1.58;;;1.20;;
77423;SDS011;66494;47.172;14.678;2023-07-13T00:03:05;1.25;;;0.88;;
77423;SDS011;66494;47.172;14.678;2023-07-13T00:04:05;2.88;;;1.05;;
77423;SDS011;66494;47.172;14.678;2023-07-13T00:06:06;3.50;;;1.60;;
77423;SDS011;66494;47.172;14.678;2023-07-13T00:07:07;3.67;;;1.15;;
77423;SDS011;66494;47.172;14.678;2023-07-13T00:09:08;2.37;;;1.03;;
77423;SDS011;66494;47.172;14.678;2023-07-13T00:10:10;1.48;;;1.00;;
77423;SDS011;66494;47.172;14.678;2023-07-13T00:11:10;1.55;;;1.00;;
77423;SDS011;66494;47.172;14.678;2023-07-13T00:12:21;1.00;;;0.73;;
77423;SDS011;66494;47.172;14.678;2023-07-13T00:13:22;1.77;;;1.05;;
77423;SDS011;66494;47.172;14.678;2023-07-13T00:14:22;1.58;;;1.30;;
77423;SDS011;66494;47.172;14.678;2023-07-13T00:15:23;2.42;;;0.98;;
77423;SDS011;66494;47.172;14.678;2023-07-13T00:17:24;1.10;;;0.90;;
77423;SDS011;66494;47.172;14.678;2023-07-13T00:18:24;2.13;;;0.80;;
77423;SDS011;66494;47.172;14.678;2023-07-13T00:19:24;3.78;;;0.82;;
77423;SDS011;66494;47.172;14.678;2023-07-13T00:20:25;2.53;;;0.73;;
77423;SDS011;66494;47.172;14.678;2023-07-13T00:21:25;0.93;;;0.75;;
77423;SDS011;66494;47.172;14.678;2023-07-13T00:22:25;1.95;;;0.90;;
77423;SDS011;66494;47.172;14.678;2023-07-13T00:23:25;1.65;;;0.80;;
77423;SDS011;66494;47.172;14.678;2023-07-13T00:24:25;1.90;;;1.00;;
77423;SDS011;66494;47.172;14.678;2023-07-13T00:25:27;1.17;;;0.82;;
77423;SDS011;66494;47.172;14.678;2023-07-13T00:26:30;1.60;;;0.85;;
77423;SDS011;66494;47.172;14.678;2023-07-13T00:27:32;2.30;;;1.15;;
77423;SDS011;66494;47.172;14.678;2023-07-13T00:28:33;3.42;;;0.85;;
77423;SDS011;66494;47.172;14.678;2023-07-13T00:30:33;4.10;;;0.80;;
77423;SDS011;66494;47.172;14.678;2023-07-13T00:32:34;2.72;;;1.10;;
77423;SDS011;66494;47.172;14.678;2023-07-13T00:33:35;3.75;;;1.23;;
77423;SDS011;66494;47.172;14.678;2023-07-13T00:34:35;2.20;;;1.27;;
77423;SDS011;66494;47.172;14.678;2023-07-13T00:35:35;3.20;;;1.60;;
77423;SDS011;66494;47.172;14.678;2023-07-13T00:37:36;4.93;;;1.48;;
77423;SDS011;66494;47.172;14.678;2023-07-13T00:38:36;2.00;;;1.30;;
77423;SDS011;66494;47.172;14.678;2023-07-13T00:40:37;2.40;;;1.53;;
77423;SDS011;66494;47.172;14.678;2023-07-13T00:41:37;3.00;;;1.70;;
77423;SDS011;66494;47.172;14.678;2023-07-13T00:42:37;3.03;;;1.50;;
77423;SDS011;66494;47.172;14.678;2023-07-13T00:43:38;3.35;;;1.48;;
77423;SDS011;66494;47.172;14.678;2023-07-13T00:44:38;2.60;;;1.20;;
77423;SDS011;66494;47.172;14.678;2023-07-13T00:46:43;4.03;;;2.33;;
77423;SDS011;66494;47.172;14.678;2023-07-13T00:48:43;3.63;;;2.08;;
77423;SDS011;66494;47.172;14.678;2023-07-13T00:50:44;4.87;;;1.50;;
77423;SDS011;66494;47.172;14.678;2023-07-13T00:52:50;2.88;;;1.60;;
77423;SDS011;66494;47.172;14.678;2023-07-13T00:53:52;4.00;;;2.45;;
77423;SDS011;66494;47.172;14.678;2023-07-13T00:55:53;4.20;;;1.63;;
77423;SDS011;66494;47.172;14.678;2023-07-13T00:56:55;4.07;;;1.60;;
77423;SDS011;66494;47.172;14.678;2023-07-13T00:57:57;1.90;;;1.20;;
77423;SDS011;66494;47.172;14.678;2023-07-13T00:58:57;3.03;;;1.42;;
77423;SDS011;66494;47.172;14.678;2023-07-13T01:00:00;4.68;;;1.27;;
77423;SDS011;66494;47.172;14.678;2023-07-13T01:01:06;2.25;;;1.33;;
77423;SDS011;66494;47.172;14.678;2023-07-13T01:03:07;3.03;;;1.15;;
77423;SDS011;66494;47.172;14.678;2023-07-13T01:04:08;1.83;;;1.20;;
77423;SDS011;66494;47.172;14.678;2023-07-13T01:05:12;4.95;;;1.35;;
77423;SDS011;66494;47.172;14.678;2023-07-13T01:06:13;2.20;;;1.48;;
77423;SDS011;66494;47.172;14.678;2023-07-13T01:07:14;1.65;;;1.15;;
77423;SDS011;66494;47.172;14.678;2023-07-13T01:08:15;1.73;;;1.38;;
77423;SDS011;66494;47.172;14.678;2023-07-13T01:10:34;3.65;;;1.15;;
77423;SDS011;66494;47.172;14.678;2023-07-13T01:11:38;2.05;;;0.98;;
77423;SDS011;66494;47.172;14.678;2023-07-13T01:12:39;4.05;;;1.52;;
77423;SDS011;66494;47.172;14.678;2023-07-13T01:13:39;1.75;;;1.23;;
77423;SDS011;66494;47.172;14.678;2023-07-13T01:14:39;2.28;;;1.20;;
77423;SDS011;66494;47.172;14.678;2023-07-13T01:16:41;1.77;;;1.07;;
77423;SDS011;66494;47.172;14.678;2023-07-13T01:17:43;2.65;;;1.25;;
77423;SDS011;66494;47.172;14.678;2023-07-13T01:18:43;2.40;;;0.90;;
77423;SDS011;66494;47.172;14.678;2023-07-13T01:19:44;2.00;;;0.90;;
77423;SDS011;66494;47.172;14.678;2023-07-13T01:21:49;4.47;;;1.43;;
77423;SDS011;66494;47.172;14.678;2023-07-13T01:22:49;3.40;;;1.17;;
77423;SDS011;66494;47.172;14.678;2023-07-13T01:24:51;2.57;;;1.23;;
77423;SDS011;66494;47.172;14.678;2023-07-13T01:25:51;4.35;;;1.77;;
77423;SDS011;66494;47.172;14.678;2023-07-13T01:27:52;3.53;;;0.97;;
77423;SDS011;66494;47.172;14.678;2023-07-13T01:28:52;2.47;;;1.20;;
77423;SDS011;66494;47.172;14.678;2023-07-13T01:29:53;2.88;;;1.17;;
77423;SDS011;66494;47.172;14.678;2023-07-13T01:31:02;1.67;;;1.17;;
77423;SDS011;66494;47.172;14.678;2023-07-13T01:32:02;3.58;;;1.08;;
77423;SDS011;66494;47.172;14.678;2023-07-13T01:33:03;1.88;;;1.00;;
77423;SDS011;66494;47.172;14.678;2023-07-13T01:34:04;2.60;;;1.08;;
77423;SDS011;66494;47.172;14.678;2023-07-13T01:35:05;2.72;;;1.45;;
77423;SDS011;66494;47.172;14.678;2023-07-13T01:36:06;1.38;;;1.02;;
77423;SDS011;66494;47.172;14.678;2023-07-13T01:37:07;3.58;;;1.17;;
77423;SDS011;66494;47.172;14.678;2023-07-13T01:38:07;4.05;;;1.35;;
77423;SDS011;66494;47.172;14.678;2023-07-13T01:39:08;2.25;;;1.08;;
77423;SDS011;66494;47.172;14.678;2023-07-13T01:40:08;1.67;;;1.02;;
77423;SDS011;66494;47.172;14.678;2023-07-13T01:42:09;6.30;;;1.35;;
77423;SDS011;66494;47.172;14.678;2023-07-13T01:43:09;2.25;;;1.40;;
77423;SDS011;66494;47.172;14.678;2023-07-13T01:45:09;3.60;;;1.35;;
77423;SDS011;66494;47.172;14.678;2023-07-13T01:46:10;3.80;;;1.00;;
77423;SDS011;66494;47.172;14.678;2023-07-13T01:47:10;4.53;;;1.33;;
77423;SDS011;66494;47.172;14.678;2023-07-13T01:48:11;5.22;;;1.77;;
77423;SDS011;66494;47.172;14.678;2023-07-13T01:49:11;5.47;;;2.20;;
77423;SDS011;66494;47.172;14.678;2023-07-13T01:50:11;2.83;;;2.15;;
77423;SDS011;66494;47.172;14.678;2023-07-13T01:51:12;4.00;;;1.83;;
77423;SDS011;66494;47.172;14.678;2023-07-13T01:52:13;4.82;;;1.40;;
77423;SDS011;66494;47.172;14.678;2023-07-13T01:53:13;3.53;;;1.92;;
77423;SDS011;66494;47.172;14.678;2023-07-13T01:54:13;3.17;;;1.45;;
77423;SDS011;66494;47.172;14.678;2023-07-13T01:56:14;4.15;;;1.70;;
77423;SDS011;66494;47.172;14.678;2023-07-13T01:57:14;5.35;;;1.98;;
77423;SDS011;66494;47.172;14.678;2023-07-13T01:58:14;2.88;;;1.40;;
77423;SDS011;66494;47.172;14.678;2023-07-13T01:59:14;3.25;;;1.55;;
77423;SDS011;66494;47.172;14.678;2023-07-13T02:00:15;4.45;;;1.75;;
77423;SDS011;66494;47.172;14.678;2023-07-13T02:01:15;2.13;;;1.33;;
77423;SDS011;66494;47.172;14.678;2023-07-13T02:03:15;2.25;;;1.38;;
77423;SDS011;66494;47.172;14.678;2023-07-13T02:04:18;3.22;;;1.25;;
77423;SDS011;66494;47.172;14.678;2023-07-13T02:05:18;4.63;;;1.20;;
77423;SDS011;66494;47.172;14.678;2023-07-13T02:06:18;3.65;;;1.50;;
77423;SDS011;66494;47.172;14.678;2023-07-13T02:07:18;2.20;;;1.00;;
77423;SDS011;66494;47.172;14.678;2023-07-13T02:09:19;3.53;;;1.40;;
77423;SDS011;66494;47.172;14.678;2023-07-13T02:10:19;4.22;;;1.75;;
77423;SDS011;66494;47.172;14.678;2023-07-13T02:11:19;4.00;;;1.98;;
77423;SDS011;66494;47.172;14.678;2023-07-13T02:12:19;3.92;;;1.52;;
77423;SDS011;66494;47.172;14.678;2023-07-13T02:13:20;2.92;;;2.05;;
77423;SDS011;66494;47.172;14.678;2023-07-13T02:14:20;2.17;;;1.13;;
77423;SDS011;66494;47.172;14.678;2023-07-13T02:15:20;2.22;;;1.60;;
77423;SDS011;66494;47.172;14.678;2023-07-13T02:17:20;6.00;;;1.30;;
77423;SDS011;66494;47.172;14.678;2023-07-13T02:18:21;3.47;;;1.52;;
77423;SDS011;66494;47.172;14.678;2023-07-13T02:19:21;5.65;;;1.40;;
77423;SDS011;66494;47.172;14.678;2023-07-13T02:20:21;2.50;;;1.33;;
77423;SDS011;66494;47.172;14.678;2023-07-13T02:21:22;2.38;;;1.52;;
77423;SDS011;66494;47.172;14.678;2023-07-13T02:23:23;3.80;;;1.30;;
77423;SDS011;66494;47.172;14.678;2023-07-13T02:25:24;3.53;;;1.48;;
77423;SDS011;66494;47.172;14.678;2023-07-13T02:27:25;2.83;;;1.47;;
77423;SDS011;66494;47.172;14.678;2023-07-13T02:28:25;10.95;;;1.75;;
77423;SDS011;66494;47.172;14.678;2023-07-13T02:29:25;4.65;;;2.25;;
77423;SDS011;66494;47.172;14.678;2023-07-13T02:31:26;6.97;;;1.65;;
77423;SDS011;66494;47.172;14.678;2023-07-13T02:32:26;5.13;;;1.65;;
77423;SDS011;66494;47.172;14.678;2023-07-13T02:33:26;3.80;;;1.38;;
77423;SDS011;66494;47.172;14.678;2023-07-13T02:34:26;5.05;;;1.48;;
77423;SDS011;66494;47.172;14.678;2023-07-13T02:35:27;4.13;;;1.20;;
77423;SDS011;66494;47.172;14.678;2023-07-13T02:36:27;2.60;;;1.25;;
77423;SDS011;66494;47.172;14.678;2023-07-13T02:38:27;3.45;;;1.38;;
77423;SDS011;66494;47.172;14.678;2023-07-13T02:39:28;3.97;;;1.85;;
77423;SDS011;66494;47.172;14.678;2023-07-13T02:40:28;3.17;;;1.30;;
77423;SDS011;66494;47.172;14.678;2023-07-13T02:41:28;2.13;;;0.95;;
77423;SDS011;66494;47.172;14.678;2023-07-13T02:42:29;2.92;;;1.40;;
77423;SDS011;66494;47.172;14.678;2023-07-13T02:43:29;4.97;;;1.30;;
77423;SDS011;66494;47.172;14.678;2023-07-13T02:44:29;2.65;;;1.00;;
77423;SDS011;66494;47.172;14.678;2023-07-13T02:46:31;5.53;;;1.55;;
77423;SDS011;66494;47.172;14.678;2023-07-13T02:47:32;6.28;;;1.90;;
77423;SDS011;66494;47.172;14.678;2023-07-13T02:49:32;2.17;;;1.50;;
77423;SDS011;66494;47.172;14.678;2023-07-13T02:50:32;2.60;;;1.70;;
77423;SDS011;66494;47.172;14.678;2023-07-13T02:51:33;2.90;;;1.50;;
77423;SDS011;66494;47.172;14.678;2023-07-13T02:53:34;3.40;;;1.67;;
77423;SDS011;66494;47.172;14.678;2023-07-13T02:54:35;4.13;;;1.50;;
77423;SDS011;66494;47.172;14.678;2023-07-13T02:55:36;2.97;;;1.50;;
77423;SDS011;66494;47.172;14.678;2023-07-13T02:56:36;3.97;;;1.83;;
77423;SDS011;66494;47.172;14.678;2023-07-13T02:57:38;2.67;;;1.50;;
77423;SDS011;66494;47.172;14.678;2023-07-13T02:58:39;2.28;;;1.83;;
77423;SDS011;66494;47.172;14.678;2023-07-13T02:59:41;2.45;;;1.67;;
77423;SDS011;66494;47.172;14.678;2023-07-13T03:00:41;3.83;;;1.65;;
77423;SDS011;66494;47.172;14.678;2023-07-13T03:02:42;3.75;;;1.70;;
77423;SDS011;66494;47.172;14.678;2023-07-13T03:04:42;2.60;;;1.80;;
77423;SDS011;66494;47.172;14.678;2023-07-13T03:05:43;2.22;;;1.27;;
77423;SDS011;66494;47.172;14.678;2023-07-13T03:06:44;5.72;;;1.63;;
77423;SDS011;66494;47.172;14.678;2023-07-13T03:07:45;3.15;;;1.90;;
77423;SDS011;66494;47.172;14.678;2023-07-13T03:08:45;2.58;;;1.35;;
77423;SDS011;66494;47.172;14.678;2023-07-13T03:09:45;2.40;;;1.52;;
77423;SDS011;66494;47.172;14.678;2023-07-13T03:10:46;4.78;;;1.75;;
77423;SDS011;66494;47.172;14.678;2023-07-13T03:11:46;3.42;;;1.75;;
77423;SDS011;66494;47.172;14.678;2023-07-13T03:12:46;2.60;;;1.80;;
77423;SDS011;66494;47.172;14.678;2023-07-13T03:13:46;2.63;;;2.03;;
77423;SDS011;66494;47.172;14.678;2023-07-13T03:15:48;3.58;;;1.80;;
77423;SDS011;66494;47.172;14.678;2023-07-13T03:16:48;4.75;;;2.00;;
77423;SDS011;66494;47.172;14.678;2023-07-13T03:17:49;3.40;;;1.95;;
77423;SDS011;66494;47.172;14.678;2023-07-13T03:18:49;2.30;;;1.58;;
77423;SDS011;66494;47.172;14.678;2023-07-13T03:20:51;5.63;;;1.90;;
77423;SDS011;66494;47.172;14.678;2023-07-13T03:21:51;3.97;;;1.88;;
77423;SDS011;66494;47.172;14.678;2023-07-13T03:22:51;2.90;;;1.50;;
77423;SDS011;66494;47.172;14.678;2023-07-13T03:23:51;4.32;;;1.38;;
77423;SDS011;66494;47.172;14.678;2023-07-13T03:24:52;3.40;;;1.88;;
77423;SDS011;66494;47.172;14.678;2023-07-13T03:26:05;5.47;;;2.30;;
77423;SDS011;66494;47.172;14.678;2023-07-13T03:27:06;5.50;;;1.85;;
77423;SDS011;66494;47.172;14.678;2023-07-13T03:28:06;4.15;;;1.95;;
77423;SDS011;66494;47.172;14.678;2023-07-13T03:29:07;3.35;;;1.73;;
77423;SDS011;66494;47.172;14.678;2023-07-13T03:30:07;3.42;;;1.83;;
77423;SDS011;66494;47.172;14.678;2023-07-13T03:31:11;5.13;;;1.63;;
77423;SDS011;66494;47.172;14.678;2023-07-13T03:32:11;4.13;;;1.58;;
77423;SDS011;66494;47.172;14.678;2023-07-13T03:34:11;1.60;;;1.40;;
77423;SDS011;66494;47.172;14.678;2023-07-13T03:36:14;4.15;;;1.60;;
77423;SDS011;66494;47.172;14.678;2023-07-13T03:37:14;5.40;;;1.80;;
77423;SDS011;66494;47.172;14.678;2023-07-13T03:38:14;4.22;;;1.65;;
77423;SDS011;66494;47.172;14.678;2023-07-13T03:39:15;4.72;;;1.73;;
77423;SDS011;66494;47.172;14.678;2023-07-13T03:40:15;2.78;;;1.98;;
77423;SDS011;66494;47.172;14.678;2023-07-13T03:41:16;2.08;;;1.67;;
77423;SDS011;66494;47.172;14.678;2023-07-13T03:42:16;3.25;;;1.73;;
77423;SDS011;66494;47.172;14.678;2023-07-13T03:43:16;4.68;;;2.55;;
77423;SDS011;66494;47.172;14.678;2023-07-13T03:44:16;4.63;;;1.67;;
77423;SDS011;66494;47.172;14.678;2023-07-13T03:46:17;3.30;;;2.07;;
77423;SDS011;66494;47.172;14.678;2023-07-13T03:47:18;5.60;;;1.95;;
77423;SDS011;66494;47.172;14.678;2023-07-13T03:49:18;3.13;;;1.98;;
77423;SDS011;66494;47.172;14.678;2023-07-13T03:51:19;5.93;;;2.55;;
77423;SDS011;66494;47.172;14.678;2023-07-13T03:53:19;3.08;;;2.00;;
77423;SDS011;66494;47.172;14.678;2023-07-13T03:54:19;3.35;;;2.10;;
77423;SDS011;66494;47.172;14.678;2023-07-13T03:55:20;4.07;;;2.38;;
77423;SDS011;66494;47.172;14.678;2023-07-13T03:57:20;7.78;;;2.50;;
77423;SDS011;66494;47.172;14.678;2023-07-13T03:58:34;7.35;;;3.60;;
77423;SDS011;66494;47.172;14.678;2023-07-13T03:59:34;6.35;;;3.30;;
77423;SDS011;66494;47.172;14.678;2023-07-13T04:00:34;5.00;;;2.70;;
77423;SDS011;66494;47.172;14.678;2023-07-13T04:01:35;3.75;;;2.55;;
77423;SDS011;66494;47.172;14.678;2023-07-13T04:03:37;2.55;;;1.77;;
77423;SDS011;66494;47.172;14.678;2023-07-13T04:05:40;6.00;;;1.90;;
77423;SDS011;66494;47.172;14.678;2023-07-13T04:06:40;3.58;;;1.40;;
77423;SDS011;66494;47.172;14.678;2023-07-13T04:07:41;2.42;;;1.85;;
77423;SDS011;66494;47.172;14.678;2023-07-13T04:08:41;3.28;;;2.00;;
77423;SDS011;66494;47.172;14.678;2023-07-13T04:09:42;2.20;;;1.27;;
77423;SDS011;66494;47.172;14.678;2023-07-13T04:10:43;2.92;;;1.50;;
77423;SDS011;66494;47.172;14.678;2023-07-13T04:11:43;2.00;;;1.50;;
77423;SDS011;66494;47.172;14.678;2023-07-13T04:13:44;2.83;;;1.40;;
77423;SDS011;66494;47.172;14.678;2023-07-13T04:15:44;3.70;;;1.45;;
77423;SDS011;66494;47.172;14.678;2023-07-13T04:17:45;4.22;;;1.40;;
77423;SDS011;66494;47.172;14.678;2023-07-13T04:18:46;2.95;;;1.70;;
77423;SDS011;66494;47.172;14.678;2023-07-13T04:19:46;2.42;;;1.35;;
77423;SDS011;66494;47.172;14.678;2023-07-13T04:21:46;2.95;;;1.35;;
77423;SDS011;66494;47.172;14.678;2023-07-13T04:22:47;4.18;;;1.75;;
77423;SDS011;66494;47.172;14.678;2023-07-13T04:24:47;5.28;;;1.67;;
77423;SDS011;66494;47.172;14.678;2023-07-13T04:25:47;2.47;;;1.13;;
77423;SDS011;66494;47.172;14.678;2023-07-13T04:26:52;3.50;;;1.67;;
77423;SDS011;66494;47.172;14.678;2023-07-13T04:27:53;3.72;;;1.80;;
77423;SDS011;66494;47.172;14.678;2023-07-13T04:28:53;4.32;;;1.83;;
77423;SDS011;66494;47.172;14.678;2023-07-13T04:29:53;5.60;;;1.95;;
77423;SDS011;66494;47.172;14.678;2023-07-13T04:30:54;3.67;;;1.70;;
77423;SDS011;66494;47.172;14.678;2023-07-13T04:31:54;7.45;;;1.77;;
77423;SDS011;66494;47.172;14.678;2023-07-13T04:32:54;2.03;;;1.35;;
77423;SDS011;66494;47.172;14.678;2023-07-13T04:33:55;4.53;;;1.77;;
77423;SDS011;66494;47.172;14.678;2023-07-13T04:34:55;2.90;;;1.63;;
77423;SDS011;66494;47.172;14.678;2023-07-13T04:35:57;2.70;;;1.73;;
77423;SDS011;66494;47.172;14.678;2023-07-13T04:36:57;2.90;;;1.80;;
77423;SDS011;66494;47.172;14.678;2023-07-13T04:38:57;1.90;;;1.58;;
77423;SDS011;66494;47.172;14.678;2023-07-13T04:39:58;4.00;;;1.77;;
77423;SDS011;66494;47.172;14.678;2023-07-13T04:40:59;2.50;;;1.80;;
77423;SDS011;66494;47.172;14.678;2023-07-13T04:42:00;3.25;;;1.90;;
77423;SDS011;66494;47.172;14.678;2023-07-13T04:43:00;2.67;;;1.33;;
77423;SDS011;66494;47.172;14.678;2023-07-13T04:44:00;4.95;;;1.80;;
77423;SDS011;66494;47.172;14.678;2023-07-13T04:45:00;3.60;;;1.20;;
77423;SDS011;66494;47.172;14.678;2023-07-13T04:46:07;3.08;;;1.60;;
77423;SDS011;66494;47.172;14.678;2023-07-13T04:47:08;3.75;;;1.90;;
77423;SDS011;66494;47.172;14.678;2023-07-13T04:48:08;5.93;;;1.30;;
77423;SDS011;66494;47.172;14.678;2023-07-13T04:50:09;4.40;;;2.08;;
77423;SDS011;66494;47.172;14.678;2023-07-13T04:51:10;4.75;;;2.10;;
77423;SDS011;66494;47.172;14.678;2023-07-13T04:52:11;2.20;;;1.58;;
77423;SDS011;66494;47.172;14.678;2023-07-13T04:53:12;1.85;;;1.45;;
77423;SDS011;66494;47.172;14.678;2023-07-13T04:55:12;2.17;;;1.20;;
77423;SDS011;66494;47.172;14.678;2023-07-13T04:56:13;3.25;;;1.35;;
77423;SDS011;66494;47.172;14.678;2023-07-13T04:58:13;3.63;;;1.15;;
77423;SDS011;66494;47.172;14.678;2023-07-13T04:59:13;3.80;;;1.60;;
77423;SDS011;66494;47.172;14.678;2023-07-13T05:00:14;2.28;;;1.35;;
77423;SDS011;66494;47.172;14.678;2023-07-13T05:01:15;3.30;;;1.60;;
77423;SDS011;66494;47.172;14.678;2023-07-13T05:02:15;3.08;;;1.52;;
77423;SDS011;66494;47.172;14.678;2023-07-13T05:03:16;2.20;;;1.10;;
77423;SDS011;66494;47.172;14.678;2023-07-13T05:04:16;3.08;;;1.52;;
77423;SDS011;66494;47.172;14.678;2023-07-13T05:05:17;1.50;;;1.15;;
77423;SDS011;66494;47.172;14.678;2023-07-13T05:06:17;2.50;;;1.30;;
77423;SDS011;66494;47.172;14.678;2023-07-13T05:08:17;2.15;;;0.60;;
77423;SDS011;66494;47.172;14.678;2023-07-13T05:09:17;2.40;;;0.70;;
77423;SDS011;66494;47.172;14.678;2023-07-13T05:10:18;1.25;;;0.90;;
77423;SDS011;66494;47.172;14.678;2023-07-13T05:12:18;2.63;;;0.63;;
77423;SDS011;66494;47.172;14.678;2023-07-13T05:13:19;2.38;;;0.80;;
77423;SDS011;66494;47.172;14.678;2023-07-13T05:14:19;5.53;;;1.00;;
77423;SDS011;66494;47.172;14.678;2023-07-13T05:15:22;2.30;;;1.10;;
77423;SDS011;66494;47.172;14.678;2023-07-13T05:16:23;1.05;;;0.70;;
77423;SDS011;66494;47.172;14.678;2023-07-13T05:17:23;1.00;;;0.70;;
77423;SDS011;66494;47.172;14.678;2023-07-13T05:18:23;1.75;;;0.88;;
77423;SDS011;66494;47.172;14.678;2023-07-13T05:19:24;2.63;;;0.85;;
77423;SDS011;66494;47.172;14.678;2023-07-13T05:20:24;1.70;;;1.00;;
77423;SDS011;66494;47.172;14.678;2023-07-13T05:22:25;3.27;;;0.93;;
77423;SDS011;66494;47.172;14.678;2023-07-13T05:23:25;3.20;;;1.30;;
77423;SDS011;66494;47.172;14.678;2023-07-13T05:25:25;1.25;;;0.60;;
77423;SDS011;66494;47.172;14.678;2023-07-13T05:26:26;3.72;;;0.73;;
77423;SDS011;66494;47.172;14.678;2023-07-13T05:28:27;1.77;;;1.10;;
77423;SDS011;66494;47.172;14.678;2023-07-13T05:29:27;2.33;;;1.45;;
77423;SDS011;66494;47.172;14.678;2023-07-13T05:30:27;3.28;;;1.30;;
77423;SDS011;66494;47.172;14.678;2023-07-13T05:31:28;1.67;;;0.90;;
77423;SDS011;66494;47.172;14.678;2023-07-13T05:32:28;2.17;;;0.90;;
77423;SDS011;66494;47.172;14.678;2023-07-13T05:33:28;3.45;;;2.33;;
77423;SDS011;66494;47.172;14.678;2023-07-13T05:34:29;3.75;;;2.00;;
77423;SDS011;66494;47.172;14.678;2023-07-13T05:35:29;3.08;;;1.75;;
77423;SDS011;66494;47.172;14.678;2023-07-13T05:36:29;2.85;;;1.20;;
77423;SDS011;66494;47.172;14.678;2023-07-13T05:37:29;4.40;;;1.30;;
77423;SDS011;66494;47.172;14.678;2023-07-13T05:38:30;2.17;;;1.00;;
77423;SDS011;66494;47.172;14.678;2023-07-13T05:40:30;2.72;;;1.85;;
77423;SDS011;66494;47.172;14.678;2023-07-13T05:41:30;2.05;;;0.77;;
77423;SDS011;66494;47.172;14.678;2023-07-13T05:42:31;1.10;;;0.80;;
77423;SDS011;66494;47.172;14.678;2023-07-13T05:43:31;2.55;;;1.13;;
77423;SDS011;66494;47.172;14.678;2023-07-13T05:45:31;1.88;;;0.93;;
77423;SDS011;66494;47.172;14.678;2023-07-13T05:47:32;3.63;;;0.88;;
77423;SDS011;66494;47.172;14.678;2023-07-13T05:48:32;1.75;;;0.95;;
77423;SDS011;66494;47.172;14.678;2023-07-13T05:49:32;1.95;;;1.05;;
77423;SDS011;66494;47.172;14.678;2023-07-13T05:50:32;1.80;;;0.70;;
77423;SDS011;66494;47.172;14.678;2023-07-13T05:51:33;2.30;;;1.02;;
77423;SDS011;66494;47.172;14.678;2023-07-13T05:53:34;1.40;;;0.98;;
77423;SDS011;66494;47.172;14.678;2023-07-13T05:54:35;1.73;;;0.88;;
77423;SDS011;66494;47.172;14.678;2023-07-13T05:55:35;1.98;;;1.27;;
77423;SDS011;66494;47.172;14.678;2023-07-13T05:56:35;3.15;;;0.80;;
77423;SDS011;66494;47.172;14.678;2023-07-13T05:57:35;2.42;;;0.82;;
77423;SDS011;66494;47.172;14.678;2023-07-13T05:58:36;3.53;;;0.80;;
77423;SDS011;66494;47.172;14.678;2023-07-13T06:00:37;2.28;;;0.90;;
77423;SDS011;66494;47.172;14.678;2023-07-13T06:01:37;2.65;;;1.00;;
77423;SDS011;66494;47.172;14.678;2023-07-13T06:02:37;4.22;;;1.10;;
77423;SDS011;66494;47.172;14.678;2023-07-13T06:03:37;2.72;;;1.08;;
77423;SDS011;66494;47.172;14.678;2023-07-13T06:04:38;6.32;;;0.93;;
77423;SDS011;66494;47.172;14.678;2023-07-13T06:05:38;1.58;;;0.90;;
77423;SDS011;66494;47.172;14.678;2023-07-13T06:06:38;2.42;;;0.80;;
77423;SDS011;66494;47.172;14.678;2023-07-13T06:08:39;1.77;;;0.80;;
77423;SDS011;66494;47.172;14.678;2023-07-13T06:09:39;2.33;;;1.52;;
77423;SDS011;66494;47.172;14.678;2023-07-13T06:10:39;1.40;;;0.73;;
77423;SDS011;66494;47.172;14.678;2023-07-13T06:11:39;2.08;;;1.38;;
77423;SDS011;66494;47.172;14.678;2023-07-13T06:13:40;3.65;;;1.10;;
77423;SDS011;66494;47.172;14.678;2023-07-13T06:14:40;1.77;;;0.95;;
77423;SDS011;66494;47.172;14.678;2023-07-13T06:15:40;2.08;;;1.05;;
77423;SDS011;66494;47.172;14.678;2023-07-13T06:16:41;4.90;;;1.25;;
77423;SDS011;66494;47.172;14.678;2023-07-13T06:18:41;4.70;;;0.80;;
77423;SDS011;66494;47.172;14.678;2023-07-13T06:19:42;1.70;;;0.50;;
77423;SDS011;66494;47.172;14.678;2023-07-13T06:21:42;1.27;;;0.80;;
77423;SDS011;66494;47.172;14.678;2023-07-13T06:23:42;1.40;;;0.63;;
77423;SDS011;66494;47.172;14.678;2023-07-13T06:25:43;3.83;;;0.77;;
77423;SDS011;66494;47.172;14.678;2023-07-13T06:26:43;3.08;;;0.95;;
77423;SDS011;66494;47.172;14.678;2023-07-13T06:27:44;1.55;;;0.57;;
77423;SDS011;66494;47.172;14.678;2023-07-13T06:28:44;3.03;;;0.60;;
77423;SDS011;66494;47.172;14.678;2023-07-13T06:29:44;1.27;;;0.35;;
77423;SDS011;66494;47.172;14.678;2023-07-13T06:30:45;1.10;;;0.50;;
77423;SDS011;66494;47.172;14.678;2023-07-13T06:31:45;2.67;;;0.50;;
77423;SDS011;66494;47.172;14.678;2023-07-13T06:32:45;1.05;;;0.50;;
77423;SDS011;66494;47.172;14.678;2023-07-13T06:33:46;1.33;;;0.47;;
77423;SDS011;66494;47.172;14.678;2023-07-13T06:34:46;1.70;;;0.60;;
77423;SDS011;66494;47.172;14.678;2023-07-13T06:36:47;2.45;;;0.50;;
77423;SDS011;66494;47.172;14.678;2023-07-13T06:38:47;1.58;;;0.70;;
77423;SDS011;66494;47.172;14.678;2023-07-13T06:39:47;4.50;;;0.43;;
77423;SDS011;66494;47.172;14.678;2023-07-13T06:40:48;3.35;;;0.80;;
77423;SDS011;66494;47.172;14.678;2023-07-13T06:41:48;2.78;;;0.68;;
77423;SDS011;66494;47.172;14.678;2023-07-13T06:42:48;2.05;;;0.47;;
77423;SDS011;66494;47.172;14.678;2023-07-13T06:43:48;0.90;;;0.70;;
77423;SDS011;66494;47.172;14.678;2023-07-13T06:45:49;1.42;;;0.75;;
77423;SDS011;66494;47.172;14.678;2023-07-13T06:47:50;1.60;;;0.63;;
77423;SDS011;66494;47.172;14.678;2023-07-13T06:48:50;3.50;;;0.73;;
77423;SDS011;66494;47.172;14.678;2023-07-13T06:49:50;1.42;;;0.60;;
77423;SDS011;66494;47.172;14.678;2023-07-13T06:51:51;2.10;;;0.70;;
77423;SDS011;66494;47.172;14.678;2023-07-13T06:52:51;1.33;;;0.63;;
77423;SDS011;66494;47.172;14.678;2023-07-13T06:54:52;2.07;;;0.67;;
77423;SDS011;66494;47.172;14.678;2023-07-13T06:56:53;0.93;;;0.50;;
77423;SDS011;66494;47.172;14.678;2023-07-13T06:57:53;3.08;;;1.58;;
77423;SDS011;66494;47.172;14.678;2023-07-13T06:58:53;1.85;;;0.70;;
77423;SDS011;66494;47.172;14.678;2023-07-13T06:59:54;1.27;;;0.90;;
77423;SDS011;66494;47.172;14.678;2023-07-13T07:00:54;1.38;;;0.60;;
77423;SDS011;66494;47.172;14.678;2023-07-13T07:01:54;3.47;;;0.80;;
77423;SDS011;66494;47.172;14.678;2023-07-13T07:02:54;1.48;;;0.82;;
77423;SDS011;66494;47.172;14.678;2023-07-13T07:04:55;1.35;;;0.70;;
77423;SDS011;66494;47.172;14.678;2023-07-13T07:06:03;1.38;;;0.65;;
77423;SDS011;66494;47.172;14.678;2023-07-13T07:07:03;2.10;;;0.70;;
77423;SDS011;66494;47.172;14.678;2023-07-13T07:09:03;4.75;;;1.55;;
77423;SDS011;66494;47.172;14.678;2023-07-13T07:11:04;1.10;;;0.85;;
77423;SDS011;66494;47.172;14.678;2023-07-13T07:13:04;2.05;;;0.73;;
77423;SDS011;66494;47.172;14.678;2023-07-13T07:14:05;1.92;;;0.70;;
77423;SDS011;66494;47.172;14.678;2023-07-13T07:16:05;2.85;;;0.68;;
77423;SDS011;66494;47.172;14.678;2023-07-13T07:17:05;2.47;;;0.70;;
77423;SDS011;66494;47.172;14.678;2023-07-13T07:18:06;1.50;;;0.70;;
77423;SDS011;66494;47.172;14.678;2023-07-13T07:19:07;0.98;;;0.88;;
77423;SDS011;66494;47.172;14.678;2023-07-13T07:21:07;1.38;;;1.05;;
77423;SDS011;66494;47.172;14.678;2023-07-13T07:23:07;3.42;;;0.60;;
77423;SDS011;66494;47.172;14.678;2023-07-13T07:25:08;2.40;;;0.70;;